Pinedale, WY

11:32 PM MDT on October 22, 2014 (GMT -0600)
Wenz | Change Station
CLOSE
Current Station
Airport
Location: Pinedale,
Elevation: 7087 ft
Nearby Weather Stations

Elev 7087 ft 42.80 °N, 109.81 °W | Updated 17 minutes ago

Clear
Clear
27 °F
Feels Like 20 °F
N
6
Wind Variable Wind from NW

Today
High -- | Low -- °F
--% Chance of Precip.
Yesterday
High -- | Low -- °F
Precip. -- in
7:41 AM 6:25 PM
Waning Crescent, 0% visible
Pressure 30.24 in
Visibility 10.0 miles
Clouds Clear
Windchill 20 °F
Dew Point 23 °F
Humidity 86%
Rainfall 0.00 in
Snow Depth Not available.
UV 0 out of 12
Pollen 1.70 out of 12
Air Quality Not available.
Flu Activity Sporadic
METAR KPNA 230515Z AUTO 32005KT 10SM CLR M03/M05 A3024 RMK AO2

More Conditions Fewer Conditions

Pressure 30.24 in
Visibility 10.0 miles
Clouds Clear
Windchill 20 °F
Dew Point 23 °F
Humidity 86%
Rainfall 0.00 in
Snow Depth Not available.
UV 0 out of 12
Pollen 1.70 out of 12
Air Quality Not available.
Flu Activity Sporadic
METAR KPNA 230515Z AUTO 32005KT 10SM CLR M03/M05 A3024 RMK AO2

More Conditions Fewer Conditions

10-Day Weather Forecast

Almanac

Astronomy

Oct. 22, 2014 Rise Set
Actual Time 7:41 AM MDT 6:25 PM MDT
Civil Twilight 7:12 AM MDT 6:54 PM MDT
Nautical Twilight 6:39 AM MDT 7:27 PM MDT
Astronomical Twilight 6:06 AM MDT 8:00 PM MDT
Moon 6:23 AM MDT (10/22) 5:55 PM MDT (10/22)
Length of Visible Light 11h 42m
Length of Day
10h 44m
Tomorrow will be 2m 43s shorter.
Waning Crescent, 0% of the Moon is Illuminated
Oct 23
Waning Crescent
Oct 23
New
Oct 30
First Quarter
Nov 6
Full
Nov 14
Last Quarter

Yesterday's Extremes

State Highs State Lows

Community

WunderPhotos

Upload Photos

1,764,184 photos uploaded!

Nearby

Snow Depth

Station Depth Elevation
New Fork Lake 0 in 8340 ft
Big Sandy Opening 1 in 9080 ft
East Rim Divide 0 in 7930 ft
Loomis Park 0 in 8240 ft
Kendall R.S. 1 in 7740 ft

Earthquake Activity

City Distance Mag. Time & Date
No recent earthquake activity has been reported nearby.
Minimum magnitude displayed is 2.5.

Coastal Water Temperatures

Place Temperature
No Stations Reporting

Nearby Weather Stations